アリススプリングス の空港の天気 - METARとTAF

アリス・スプリングス空港 ( YBAS / ASP ) - オーストラリア ノーザンテリトリーアリススプリングス
飛行場実況気象(Metar)
観測時間09/23 08:00 ACST (09/22 22:30 UTC)
風向・風速東 4m/s
視程10km以上
天気現象
なし
気温13℃
湿度28%
気圧1024hPa
METARYBAS 222230Z AUTO 09007KT 9999 // NCD 13/M05 Q1024 RF00.0/000.0
過去の天気等 Google飛行場航空写真 Wunderground天気予報

過去48時間のMETAR

飛行場予報(TAF)
発表時間: 9/23 02:42 ACST (9/22 17:12 UTC)
予報対象時間: 23日3時 ACST ~ 24日3時 ACST
風向・風速東 3m/s
視程10km以上
なし
23日8時 ACST から
風向・風速東 6m/s
視程10km以上
なし
23日13時 ACST から
風向・風速東南東 5m/s
視程10km以上
なし
23日23時 ACST から
風向・風速北西 3m/s
視程10km以上
なし
TAF YBAS 221712Z 2218/2318 08005KT CAVOK
FM222300 08012KT CAVOK
FM230400 11009KT CAVOK
FM231400 32005KT CAVOK